sensor_id;sensor_type;location;lat;lon;timestamp;P1;durP1;ratioP1;P2;durP2;ratioP2
63492;SDS011;49638;47.526;10.028;2023-09-07T00:02:22;9.38;;;7.30;;
63492;SDS011;49638;47.526;10.028;2023-09-07T00:05:22;8.32;;;7.15;;
63492;SDS011;49638;47.526;10.028;2023-09-07T00:08:22;9.73;;;7.90;;
63492;SDS011;49638;47.526;10.028;2023-09-07T00:11:24;11.68;;;7.47;;
63492;SDS011;49638;47.526;10.028;2023-09-07T00:14:25;9.75;;;7.75;;
63492;SDS011;49638;47.526;10.028;2023-09-07T00:17:25;10.20;;;8.07;;
63492;SDS011;49638;47.526;10.028;2023-09-07T00:20:25;10.10;;;7.40;;
63492;SDS011;49638;47.526;10.028;2023-09-07T00:23:26;12.25;;;8.07;;
63492;SDS011;49638;47.526;10.028;2023-09-07T00:26:26;10.20;;;7.60;;
63492;SDS011;49638;47.526;10.028;2023-09-07T00:29:27;8.45;;;7.20;;
63492;SDS011;49638;47.526;10.028;2023-09-07T00:32:27;8.60;;;6.95;;
63492;SDS011;49638;47.526;10.028;2023-09-07T00:35:27;10.85;;;7.45;;
63492;SDS011;49638;47.526;10.028;2023-09-07T00:38:27;9.43;;;7.75;;
63492;SDS011;49638;47.526;10.028;2023-09-07T00:41:28;9.43;;;7.85;;
63492;SDS011;49638;47.526;10.028;2023-09-07T00:44:28;9.77;;;8.30;;
63492;SDS011;49638;47.526;10.028;2023-09-07T00:47:28;9.38;;;8.10;;
63492;SDS011;49638;47.526;10.028;2023-09-07T00:50:29;9.38;;;7.55;;
63492;SDS011;49638;47.526;10.028;2023-09-07T00:53:29;9.73;;;7.30;;
63492;SDS011;49638;47.526;10.028;2023-09-07T00:56:30;9.07;;;7.50;;
63492;SDS011;49638;47.526;10.028;2023-09-07T00:59:31;9.20;;;7.40;;
63492;SDS011;49638;47.526;10.028;2023-09-07T01:02:32;9.40;;;7.28;;
63492;SDS011;49638;47.526;10.028;2023-09-07T01:05:34;10.18;;;8.00;;
63492;SDS011;49638;47.526;10.028;2023-09-07T01:08:46;11.70;;;7.30;;
63492;SDS011;49638;47.526;10.028;2023-09-07T01:11:51;9.15;;;7.25;;
63492;SDS011;49638;47.526;10.028;2023-09-07T01:14:52;9.88;;;7.32;;
63492;SDS011;49638;47.526;10.028;2023-09-07T01:17:53;9.30;;;7.47;;
63492;SDS011;49638;47.526;10.028;2023-09-07T01:20:54;8.88;;;7.55;;
63492;SDS011;49638;47.526;10.028;2023-09-07T01:23:56;9.38;;;7.07;;
63492;SDS011;49638;47.526;10.028;2023-09-07T01:26:57;10.82;;;7.47;;
63492;SDS011;49638;47.526;10.028;2023-09-07T01:29:58;10.63;;;8.02;;
63492;SDS011;49638;47.526;10.028;2023-09-07T01:32:59;11.00;;;8.07;;
63492;SDS011;49638;47.526;10.028;2023-09-07T01:35:59;12.02;;;8.02;;
63492;SDS011;49638;47.526;10.028;2023-09-07T01:39:00;8.80;;;7.55;;
63492;SDS011;49638;47.526;10.028;2023-09-07T01:42:01;8.02;;;7.22;;
63492;SDS011;49638;47.526;10.028;2023-09-07T01:45:01;11.00;;;7.50;;
63492;SDS011;49638;47.526;10.028;2023-09-07T01:48:01;9.52;;;7.85;;
63492;SDS011;49638;47.526;10.028;2023-09-07T01:51:03;10.55;;;7.28;;
63492;SDS011;49638;47.526;10.028;2023-09-07T01:54:03;10.98;;;7.75;;
63492;SDS011;49638;47.526;10.028;2023-09-07T01:57:04;9.95;;;8.00;;
63492;SDS011;49638;47.526;10.028;2023-09-07T02:00:04;11.50;;;8.27;;
63492;SDS011;49638;47.526;10.028;2023-09-07T02:03:05;10.40;;;8.10;;
63492;SDS011;49638;47.526;10.028;2023-09-07T02:06:06;11.90;;;7.82;;
63492;SDS011;49638;47.526;10.028;2023-09-07T02:09:06;12.70;;;8.20;;
63492;SDS011;49638;47.526;10.028;2023-09-07T02:12:07;9.93;;;7.80;;
63492;SDS011;49638;47.526;10.028;2023-09-07T02:15:08;11.10;;;8.02;;
63492;SDS011;49638;47.526;10.028;2023-09-07T02:18:08;11.50;;;7.85;;
63492;SDS011;49638;47.526;10.028;2023-09-07T02:21:09;9.73;;;8.10;;
63492;SDS011;49638;47.526;10.028;2023-09-07T02:24:09;10.45;;;7.95;;
63492;SDS011;49638;47.526;10.028;2023-09-07T02:27:10;9.23;;;7.57;;
63492;SDS011;49638;47.526;10.028;2023-09-07T02:30:10;11.32;;;7.97;;
63492;SDS011;49638;47.526;10.028;2023-09-07T02:33:11;10.45;;;8.02;;
63492;SDS011;49638;47.526;10.028;2023-09-07T02:36:11;12.48;;;7.97;;
63492;SDS011;49638;47.526;10.028;2023-09-07T02:39:11;11.98;;;8.55;;
63492;SDS011;49638;47.526;10.028;2023-09-07T02:42:12;10.95;;;8.20;;
63492;SDS011;49638;47.526;10.028;2023-09-07T02:45:14;8.50;;;7.60;;
63492;SDS011;49638;47.526;10.028;2023-09-07T02:48:14;10.23;;;7.40;;
63492;SDS011;49638;47.526;10.028;2023-09-07T02:51:14;10.65;;;7.57;;
63492;SDS011;49638;47.526;10.028;2023-09-07T02:54:15;9.63;;;7.45;;
63492;SDS011;49638;47.526;10.028;2023-09-07T02:57:15;10.40;;;8.15;;
63492;SDS011;49638;47.526;10.028;2023-09-07T03:00:15;12.02;;;8.18;;
63492;SDS011;49638;47.526;10.028;2023-09-07T03:03:17;9.77;;;7.90;;
63492;SDS011;49638;47.526;10.028;2023-09-07T03:06:17;11.75;;;8.30;;
63492;SDS011;49638;47.526;10.028;2023-09-07T03:09:18;10.35;;;8.35;;
63492;SDS011;49638;47.526;10.028;2023-09-07T03:12:18;9.45;;;7.93;;
63492;SDS011;49638;47.526;10.028;2023-09-07T03:15:19;9.73;;;7.50;;
63492;SDS011;49638;47.526;10.028;2023-09-07T03:18:19;10.55;;;7.50;;
63492;SDS011;49638;47.526;10.028;2023-09-07T03:21:19;11.77;;;7.88;;
63492;SDS011;49638;47.526;10.028;2023-09-07T03:24:20;12.05;;;8.45;;
63492;SDS011;49638;47.526;10.028;2023-09-07T03:27:20;10.27;;;8.45;;
63492;SDS011;49638;47.526;10.028;2023-09-07T03:30:20;10.27;;;8.30;;
63492;SDS011;49638;47.526;10.028;2023-09-07T03:33:21;10.20;;;8.32;;
63492;SDS011;49638;47.526;10.028;2023-09-07T03:36:21;10.52;;;8.45;;
63492;SDS011;49638;47.526;10.028;2023-09-07T03:39:22;9.60;;;8.48;;
63492;SDS011;49638;47.526;10.028;2023-09-07T03:42:22;9.93;;;8.45;;
63492;SDS011;49638;47.526;10.028;2023-09-07T03:45:22;10.45;;;8.20;;
63492;SDS011;49638;47.526;10.028;2023-09-07T03:48:23;9.85;;;7.72;;
63492;SDS011;49638;47.526;10.028;2023-09-07T03:51:23;11.20;;;7.93;;
63492;SDS011;49638;47.526;10.028;2023-09-07T03:54:23;10.73;;;8.13;;
63492;SDS011;49638;47.526;10.028;2023-09-07T03:57:24;11.35;;;9.13;;
63492;SDS011;49638;47.526;10.028;2023-09-07T04:00:25;10.70;;;8.55;;
63492;SDS011;49638;47.526;10.028;2023-09-07T04:03:25;10.25;;;8.10;;
63492;SDS011;49638;47.526;10.028;2023-09-07T04:06:26;11.25;;;7.32;;
63492;SDS011;49638;47.526;10.028;2023-09-07T04:09:26;11.23;;;7.53;;
63492;SDS011;49638;47.526;10.028;2023-09-07T04:12:26;9.63;;;7.35;;
63492;SDS011;49638;47.526;10.028;2023-09-07T04:15:26;9.32;;;7.25;;
63492;SDS011;49638;47.526;10.028;2023-09-07T04:18:27;10.63;;;7.63;;
63492;SDS011;49638;47.526;10.028;2023-09-07T04:21:27;10.07;;;7.70;;
63492;SDS011;49638;47.526;10.028;2023-09-07T04:24:27;9.80;;;7.85;;
63492;SDS011;49638;47.526;10.028;2023-09-07T04:27:27;10.93;;;8.02;;
63492;SDS011;49638;47.526;10.028;2023-09-07T04:30:28;9.38;;;7.53;;
63492;SDS011;49638;47.526;10.028;2023-09-07T04:33:34;9.55;;;7.50;;
63492;SDS011;49638;47.526;10.028;2023-09-07T04:36:35;11.38;;;8.20;;
63492;SDS011;49638;47.526;10.028;2023-09-07T04:39:35;9.65;;;7.30;;
63492;SDS011;49638;47.526;10.028;2023-09-07T04:42:36;8.77;;;7.40;;
63492;SDS011;49638;47.526;10.028;2023-09-07T04:45:45;9.48;;;7.53;;
63492;SDS011;49638;47.526;10.028;2023-09-07T04:48:46;8.63;;;7.45;;
63492;SDS011;49638;47.526;10.028;2023-09-07T04:51:46;9.48;;;7.10;;
63492;SDS011;49638;47.526;10.028;2023-09-07T04:54:47;13.02;;;7.93;;
63492;SDS011;49638;47.526;10.028;2023-09-07T04:57:47;10.80;;;8.40;;
63492;SDS011;49638;47.526;10.028;2023-09-07T05:00:47;11.18;;;8.00;;
63492;SDS011;49638;47.526;10.028;2023-09-07T05:03:48;9.27;;;7.93;;
63492;SDS011;49638;47.526;10.028;2023-09-07T05:06:48;10.60;;;8.40;;
63492;SDS011;49638;47.526;10.028;2023-09-07T05:09:48;9.57;;;8.13;;
63492;SDS011;49638;47.526;10.028;2023-09-07T05:12:48;12.68;;;8.80;;
63492;SDS011;49638;47.526;10.028;2023-09-07T05:15:49;12.50;;;8.52;;
63492;SDS011;49638;47.526;10.028;2023-09-07T05:18:50;11.85;;;8.30;;
63492;SDS011;49638;47.526;10.028;2023-09-07T05:21:51;11.93;;;8.15;;
63492;SDS011;49638;47.526;10.028;2023-09-07T05:24:51;10.00;;;8.45;;
63492;SDS011;49638;47.526;10.028;2023-09-07T05:27:51;10.05;;;7.50;;
63492;SDS011;49638;47.526;10.028;2023-09-07T05:30:51;9.38;;;7.80;;
63492;SDS011;49638;47.526;10.028;2023-09-07T05:33:52;10.95;;;8.25;;
63492;SDS011;49638;47.526;10.028;2023-09-07T05:36:52;11.27;;;8.43;;
63492;SDS011;49638;47.526;10.028;2023-09-07T05:39:52;13.60;;;9.52;;
63492;SDS011;49638;47.526;10.028;2023-09-07T05:42:53;12.38;;;8.38;;
63492;SDS011;49638;47.526;10.028;2023-09-07T05:45:53;11.35;;;8.75;;
63492;SDS011;49638;47.526;10.028;2023-09-07T05:48:54;12.18;;;9.60;;
63492;SDS011;49638;47.526;10.028;2023-09-07T05:51:54;19.10;;;9.27;;
63492;SDS011;49638;47.526;10.028;2023-09-07T05:54:55;12.90;;;9.00;;
63492;SDS011;49638;47.526;10.028;2023-09-07T05:57:55;12.10;;;7.75;;
63492;SDS011;49638;47.526;10.028;2023-09-07T06:00:56;10.35;;;7.55;;
63492;SDS011;49638;47.526;10.028;2023-09-07T06:03:56;11.90;;;8.38;;
63492;SDS011;49638;47.526;10.028;2023-09-07T06:06:56;10.68;;;8.35;;
63492;SDS011;49638;47.526;10.028;2023-09-07T06:09:57;10.52;;;8.45;;
63492;SDS011;49638;47.526;10.028;2023-09-07T06:12:58;10.80;;;8.30;;
63492;SDS011;49638;47.526;10.028;2023-09-07T06:15:59;12.02;;;8.30;;
63492;SDS011;49638;47.526;10.028;2023-09-07T06:19:00;9.35;;;8.25;;
63492;SDS011;49638;47.526;10.028;2023-09-07T06:22:00;10.32;;;7.93;;
63492;SDS011;49638;47.526;10.028;2023-09-07T06:25:01;11.02;;;7.97;;
63492;SDS011;49638;47.526;10.028;2023-09-07T06:28:01;12.05;;;7.32;;
63492;SDS011;49638;47.526;10.028;2023-09-07T06:31:02;9.02;;;7.70;;
63492;SDS011;49638;47.526;10.028;2023-09-07T06:34:02;10.02;;;6.55;;
63492;SDS011;49638;47.526;10.028;2023-09-07T06:37:03;10.05;;;7.50;;
63492;SDS011;49638;47.526;10.028;2023-09-07T06:40:03;9.10;;;7.15;;
63492;SDS011;49638;47.526;10.028;2023-09-07T06:43:04;8.73;;;7.20;;
63492;SDS011;49638;47.526;10.028;2023-09-07T06:46:06;8.57;;;6.40;;
63492;SDS011;49638;47.526;10.028;2023-09-07T06:49:10;7.50;;;6.45;;
63492;SDS011;49638;47.526;10.028;2023-09-07T06:52:10;11.90;;;7.55;;
63492;SDS011;49638;47.526;10.028;2023-09-07T06:55:10;7.65;;;6.63;;
63492;SDS011;49638;47.526;10.028;2023-09-07T06:58:11;8.82;;;7.00;;
63492;SDS011;49638;47.526;10.028;2023-09-07T07:01:11;8.32;;;7.45;;
63492;SDS011;49638;47.526;10.028;2023-09-07T07:04:11;10.82;;;6.93;;
63492;SDS011;49638;47.526;10.028;2023-09-07T07:07:11;8.85;;;7.25;;
63492;SDS011;49638;47.526;10.028;2023-09-07T07:10:12;8.18;;;6.85;;
63492;SDS011;49638;47.526;10.028;2023-09-07T07:13:12;8.13;;;6.88;;
63492;SDS011;49638;47.526;10.028;2023-09-07T07:16:12;8.38;;;7.22;;
63492;SDS011;49638;47.526;10.028;2023-09-07T07:19:13;9.48;;;7.10;;
63492;SDS011;49638;47.526;10.028;2023-09-07T07:22:13;7.38;;;6.60;;
63492;SDS011;49638;47.526;10.028;2023-09-07T07:25:14;9.52;;;7.30;;
63492;SDS011;49638;47.526;10.028;2023-09-07T07:28:14;7.35;;;6.60;;
63492;SDS011;49638;47.526;10.028;2023-09-07T07:31:14;8.40;;;6.53;;
63492;SDS011;49638;47.526;10.028;2023-09-07T07:34:14;13.32;;;7.15;;
63492;SDS011;49638;47.526;10.028;2023-09-07T07:37:15;8.15;;;6.70;;
63492;SDS011;49638;47.526;10.028;2023-09-07T07:40:15;8.70;;;6.80;;
63492;SDS011;49638;47.526;10.028;2023-09-07T07:43:16;8.10;;;6.80;;
63492;SDS011;49638;47.526;10.028;2023-09-07T07:46:16;7.50;;;6.70;;
63492;SDS011;49638;47.526;10.028;2023-09-07T07:49:16;9.50;;;6.80;;
63492;SDS011;49638;47.526;10.028;2023-09-07T07:52:16;7.23;;;6.40;;
63492;SDS011;49638;47.526;10.028;2023-09-07T07:55:17;8.00;;;6.32;;
63492;SDS011;49638;47.526;10.028;2023-09-07T07:58:17;9.15;;;6.85;;
63492;SDS011;49638;47.526;10.028;2023-09-07T08:01:18;7.70;;;6.80;;
63492;SDS011;49638;47.526;10.028;2023-09-07T08:04:20;9.55;;;6.60;;
63492;SDS011;49638;47.526;10.028;2023-09-07T08:07:20;9.40;;;7.10;;
63492;SDS011;49638;47.526;10.028;2023-09-07T08:10:20;8.52;;;6.80;;
63492;SDS011;49638;47.526;10.028;2023-09-07T08:13:21;9.25;;;7.10;;
63492;SDS011;49638;47.526;10.028;2023-09-07T08:16:23;8.93;;;6.60;;
63492;SDS011;49638;47.526;10.028;2023-09-07T08:19:24;9.35;;;6.47;;
63492;SDS011;49638;47.526;10.028;2023-09-07T08:22:24;8.68;;;6.90;;
63492;SDS011;49638;47.526;10.028;2023-09-07T08:25:25;8.82;;;7.20;;
63492;SDS011;49638;47.526;10.028;2023-09-07T08:28:26;9.15;;;6.93;;
63492;SDS011;49638;47.526;10.028;2023-09-07T08:31:29;9.43;;;6.78;;
63492;SDS011;49638;47.526;10.028;2023-09-07T08:34:29;9.20;;;6.97;;
63492;SDS011;49638;47.526;10.028;2023-09-07T08:37:29;8.55;;;6.93;;
63492;SDS011;49638;47.526;10.028;2023-09-07T08:40:30;8.35;;;7.18;;
63492;SDS011;49638;47.526;10.028;2023-09-07T08:43:33;9.93;;;6.80;;
63492;SDS011;49638;47.526;10.028;2023-09-07T08:46:39;9.82;;;7.22;;
63492;SDS011;49638;47.526;10.028;2023-09-07T08:49:41;9.43;;;7.28;;
63492;SDS011;49638;47.526;10.028;2023-09-07T08:52:45;8.52;;;7.30;;
63492;SDS011;49638;47.526;10.028;2023-09-07T08:55:46;8.35;;;7.22;;
63492;SDS011;49638;47.526;10.028;2023-09-07T08:58:48;10.02;;;7.10;;
63492;SDS011;49638;47.526;10.028;2023-09-07T09:01:55;11.65;;;7.47;;
63492;SDS011;49638;47.526;10.028;2023-09-07T09:04:56;8.82;;;7.40;;
63492;SDS011;49638;47.526;10.028;2023-09-07T09:08:02;9.93;;;7.78;;
63492;SDS011;49638;47.526;10.028;2023-09-07T09:11:06;8.85;;;7.57;;
63492;SDS011;49638;47.526;10.028;2023-09-07T09:14:07;9.40;;;7.55;;
63492;SDS011;49638;47.526;10.028;2023-09-07T09:17:10;11.15;;;8.20;;
63492;SDS011;49638;47.526;10.028;2023-09-07T09:20:25;9.93;;;7.85;;
63492;SDS011;49638;47.526;10.028;2023-09-07T09:23:35;10.65;;;7.88;;
63492;SDS011;49638;47.526;10.028;2023-09-07T09:26:36;9.07;;;7.32;;
63492;SDS011;49638;47.526;10.028;2023-09-07T09:29:37;8.57;;;7.63;;
63492;SDS011;49638;47.526;10.028;2023-09-07T09:32:38;9.38;;;7.80;;
63492;SDS011;49638;47.526;10.028;2023-09-07T09:35:38;8.77;;;7.88;;
63492;SDS011;49638;47.526;10.028;2023-09-07T09:38:38;13.07;;;7.93;;
63492;SDS011;49638;47.526;10.028;2023-09-07T09:41:39;9.95;;;7.57;;
63492;SDS011;49638;47.526;10.028;2023-09-07T09:44:39;10.77;;;7.45;;
63492;SDS011;49638;47.526;10.028;2023-09-07T09:47:41;8.35;;;7.43;;
63492;SDS011;49638;47.526;10.028;2023-09-07T09:50:42;8.43;;;7.63;;
63492;SDS011;49638;47.526;10.028;2023-09-07T09:53:44;7.95;;;7.15;;
63492;SDS011;49638;47.526;10.028;2023-09-07T09:56:45;8.75;;;7.43;;
63492;SDS011;49638;47.526;10.028;2023-09-07T09:59:45;8.38;;;7.10;;
63492;SDS011;49638;47.526;10.028;2023-09-07T10:02:47;7.95;;;6.75;;
63492;SDS011;49638;47.526;10.028;2023-09-07T10:05:51;7.95;;;7.15;;
63492;SDS011;49638;47.526;10.028;2023-09-07T10:08:54;9.98;;;7.07;;
63492;SDS011;49638;47.526;10.028;2023-09-07T10:11:58;8.70;;;7.78;;
63492;SDS011;49638;47.526;10.028;2023-09-07T10:14:59;9.93;;;7.75;;
63492;SDS011;49638;47.526;10.028;2023-09-07T10:18:06;8.60;;;7.63;;
63492;SDS011;49638;47.526;10.028;2023-09-07T10:21:07;8.00;;;7.20;;
63492;SDS011;49638;47.526;10.028;2023-09-07T10:24:07;9.27;;;7.13;;
63492;SDS011;49638;47.526;10.028;2023-09-07T10:27:08;9.90;;;7.25;;
63492;SDS011;49638;47.526;10.028;2023-09-07T10:30:11;9.75;;;7.22;;
63492;SDS011;49638;47.526;10.028;2023-09-07T10:33:22;9.00;;;6.80;;
63492;SDS011;49638;47.526;10.028;2023-09-07T10:36:24;8.68;;;7.03;;
63492;SDS011;49638;47.526;10.028;2023-09-07T10:39:29;8.13;;;7.22;;
63492;SDS011;49638;47.526;10.028;2023-09-07T10:42:31;8.57;;;7.13;;
63492;SDS011;49638;47.526;10.028;2023-09-07T10:45:33;9.50;;;7.38;;
63492;SDS011;49638;47.526;10.028;2023-09-07T10:48:33;7.65;;;6.85;;
63492;SDS011;49638;47.526;10.028;2023-09-07T10:51:39;11.90;;;7.03;;
63492;SDS011;49638;47.526;10.028;2023-09-07T10:54:40;11.00;;;7.07;;
63492;SDS011;49638;47.526;10.028;2023-09-07T10:57:41;10.70;;;7.57;;
63492;SDS011;49638;47.526;10.028;2023-09-07T11:03:44;8.97;;;6.50;;
63492;SDS011;49638;47.526;10.028;2023-09-07T11:06:45;7.10;;;6.40;;
63492;SDS011;49638;47.526;10.028;2023-09-07T11:09:45;8.40;;;7.03;;
63492;SDS011;49638;47.526;10.028;2023-09-07T11:12:45;8.82;;;7.43;;
63492;SDS011;49638;47.526;10.028;2023-09-07T11:15:46;8.77;;;7.35;;
63492;SDS011;49638;47.526;10.028;2023-09-07T11:18:46;8.43;;;7.30;;
63492;SDS011;49638;47.526;10.028;2023-09-07T11:21:47;9.05;;;7.38;;
63492;SDS011;49638;47.526;10.028;2023-09-07T11:24:47;7.93;;;7.05;;
63492;SDS011;49638;47.526;10.028;2023-09-07T11:27:47;8.40;;;7.32;;
63492;SDS011;49638;47.526;10.028;2023-09-07T11:30:54;9.13;;;7.45;;
63492;SDS011;49638;47.526;10.028;2023-09-07T11:33:55;7.97;;;7.03;;
63492;SDS011;49638;47.526;10.028;2023-09-07T11:36:56;8.88;;;7.40;;
63492;SDS011;49638;47.526;10.028;2023-09-07T11:39:56;10.53;;;7.80;;
63492;SDS011;49638;47.526;10.028;2023-09-07T11:42:56;9.65;;;7.50;;
63492;SDS011;49638;47.526;10.028;2023-09-07T11:45:57;8.25;;;7.45;;
63492;SDS011;49638;47.526;10.028;2023-09-07T11:48:57;8.50;;;7.13;;
63492;SDS011;49638;47.526;10.028;2023-09-07T11:51:57;9.98;;;7.65;;
63492;SDS011;49638;47.526;10.028;2023-09-07T11:54:58;12.32;;;8.25;;
63492;SDS011;49638;47.526;10.028;2023-09-07T11:57:58;8.20;;;7.07;;
63492;SDS011;49638;47.526;10.028;2023-09-07T12:00:58;9.25;;;7.47;;
63492;SDS011;49638;47.526;10.028;2023-09-07T12:03:59;8.35;;;7.30;;
63492;SDS011;49638;47.526;10.028;2023-09-07T12:06:59;8.48;;;7.53;;
63492;SDS011;49638;47.526;10.028;2023-09-07T12:09:59;10.00;;;7.53;;
63492;SDS011;49638;47.526;10.028;2023-09-07T12:12:59;11.90;;;7.57;;
63492;SDS011;49638;47.526;10.028;2023-09-07T12:16:00;8.10;;;7.23;;
63492;SDS011;49638;47.526;10.028;2023-09-07T12:19:02;8.50;;;7.60;;
63492;SDS011;49638;47.526;10.028;2023-09-07T12:22:02;10.85;;;7.53;;
63492;SDS011;49638;47.526;10.028;2023-09-07T12:25:04;8.85;;;7.38;;
63492;SDS011;49638;47.526;10.028;2023-09-07T12:28:06;9.10;;;8.10;;
63492;SDS011;49638;47.526;10.028;2023-09-07T12:31:06;9.90;;;7.53;;
63492;SDS011;49638;47.526;10.028;2023-09-07T12:34:07;11.18;;;7.63;;
63492;SDS011;49638;47.526;10.028;2023-09-07T12:37:08;8.80;;;7.57;;
63492;SDS011;49638;47.526;10.028;2023-09-07T12:40:09;8.60;;;7.70;;
63492;SDS011;49638;47.526;10.028;2023-09-07T12:43:13;8.30;;;7.40;;
63492;SDS011;49638;47.526;10.028;2023-09-07T12:46:13;9.95;;;7.65;;
63492;SDS011;49638;47.526;10.028;2023-09-07T12:49:13;11.75;;;7.65;;
63492;SDS011;49638;47.526;10.028;2023-09-07T12:52:16;8.23;;;7.35;;
63492;SDS011;49638;47.526;10.028;2023-09-07T12:55:17;8.87;;;7.30;;
63492;SDS011;49638;47.526;10.028;2023-09-07T12:58:18;8.18;;;7.18;;
63492;SDS011;49638;47.526;10.028;2023-09-07T13:01:19;9.10;;;7.22;;
63492;SDS011;49638;47.526;10.028;2023-09-07T13:04:19;8.98;;;7.07;;
63492;SDS011;49638;47.526;10.028;2023-09-07T13:07:19;8.50;;;7.30;;
63492;SDS011;49638;47.526;10.028;2023-09-07T13:10:20;7.70;;;6.78;;
63492;SDS011;49638;47.526;10.028;2023-09-07T13:13:20;7.95;;;7.15;;
63492;SDS011;49638;47.526;10.028;2023-09-07T13:16:22;8.32;;;7.43;;
63492;SDS011;49638;47.526;10.028;2023-09-07T13:19:22;8.43;;;7.15;;
63492;SDS011;49638;47.526;10.028;2023-09-07T13:22:22;8.10;;;7.30;;
63492;SDS011;49638;47.526;10.028;2023-09-07T13:25:23;9.23;;;7.15;;
63492;SDS011;49638;47.526;10.028;2023-09-07T13:28:23;9.40;;;7.55;;
63492;SDS011;49638;47.526;10.028;2023-09-07T13:31:23;11.60;;;7.68;;
63492;SDS011;49638;47.526;10.028;2023-09-07T13:34:24;10.90;;;7.77;;
63492;SDS011;49638;47.526;10.028;2023-09-07T13:37:25;9.95;;;7.30;;
63492;SDS011;49638;47.526;10.028;2023-09-07T13:40:25;8.95;;;7.35;;
63492;SDS011;49638;47.526;10.028;2023-09-07T13:46:29;11.63;;;7.28;;
63492;SDS011;49638;47.526;10.028;2023-09-07T13:49:29;9.93;;;7.72;;
63492;SDS011;49638;47.526;10.028;2023-09-07T13:52:30;8.80;;;7.88;;
63492;SDS011;49638;47.526;10.028;2023-09-07T13:55:30;13.15;;;8.20;;
63492;SDS011;49638;47.526;10.028;2023-09-07T13:58:30;7.82;;;7.03;;
63492;SDS011;49638;47.526;10.028;2023-09-07T14:01:31;8.60;;;7.27;;
63492;SDS011;49638;47.526;10.028;2023-09-07T14:04:31;10.90;;;7.65;;
63492;SDS011;49638;47.526;10.028;2023-09-07T14:07:32;8.80;;;7.32;;
63492;SDS011;49638;47.526;10.028;2023-09-07T14:10:32;9.93;;;7.68;;
63492;SDS011;49638;47.526;10.028;2023-09-07T14:13:32;9.23;;;7.60;;
63492;SDS011;49638;47.526;10.028;2023-09-07T14:16:35;8.82;;;7.93;;
63492;SDS011;49638;47.526;10.028;2023-09-07T14:19:35;10.57;;;8.20;;
63492;SDS011;49638;47.526;10.028;2023-09-07T14:22:35;9.77;;;8.20;;
63492;SDS011;49638;47.526;10.028;2023-09-07T14:25:35;10.48;;;8.60;;
63492;SDS011;49638;47.526;10.028;2023-09-07T14:28:37;9.07;;;8.07;;
63492;SDS011;49638;47.526;10.028;2023-09-07T14:31:39;9.20;;;7.82;;
63492;SDS011;49638;47.526;10.028;2023-09-07T14:34:39;12.88;;;7.97;;
63492;SDS011;49638;47.526;10.028;2023-09-07T14:37:40;9.43;;;7.73;;
63492;SDS011;49638;47.526;10.028;2023-09-07T14:40:40;9.00;;;8.10;;
63492;SDS011;49638;47.526;10.028;2023-09-07T14:43:40;9.82;;;8.15;;
63492;SDS011;49638;47.526;10.028;2023-09-07T14:46:40;9.10;;;7.97;;
63492;SDS011;49638;47.526;10.028;2023-09-07T14:49:41;11.20;;;8.48;;
63492;SDS011;49638;47.526;10.028;2023-09-07T14:52:41;8.82;;;7.93;;
63492;SDS011;49638;47.526;10.028;2023-09-07T14:55:44;9.55;;;7.97;;
63492;SDS011;49638;47.526;10.028;2023-09-07T14:58:44;10.70;;;8.52;;
63492;SDS011;49638;47.526;10.028;2023-09-07T15:01:45;10.13;;;8.65;;
63492;SDS011;49638;47.526;10.028;2023-09-07T15:04:45;14.15;;;8.60;;
63492;SDS011;49638;47.526;10.028;2023-09-07T15:07:45;10.80;;;8.35;;
63492;SDS011;49638;47.526;10.028;2023-09-07T15:10:46;10.37;;;8.63;;
63492;SDS011;49638;47.526;10.028;2023-09-07T15:13:46;11.43;;;8.32;;
63492;SDS011;49638;47.526;10.028;2023-09-07T15:16:46;9.00;;;8.05;;
63492;SDS011;49638;47.526;10.028;2023-09-07T15:19:47;10.13;;;8.38;;
63492;SDS011;49638;47.526;10.028;2023-09-07T15:22:47;9.70;;;8.70;;
63492;SDS011;49638;47.526;10.028;2023-09-07T15:25:47;11.23;;;8.80;;
63492;SDS011;49638;47.526;10.028;2023-09-07T15:28:48;11.65;;;8.27;;
63492;SDS011;49638;47.526;10.028;2023-09-07T15:31:48;10.07;;;8.47;;
63492;SDS011;49638;47.526;10.028;2023-09-07T15:34:50;11.77;;;9.23;;
63492;SDS011;49638;47.526;10.028;2023-09-07T15:37:50;10.25;;;8.80;;
63492;SDS011;49638;47.526;10.028;2023-09-07T15:40:50;11.80;;;9.02;;
63492;SDS011;49638;47.526;10.028;2023-09-07T15:43:51;13.23;;;8.73;;
63492;SDS011;49638;47.526;10.028;2023-09-07T15:46:53;11.43;;;9.02;;
63492;SDS011;49638;47.526;10.028;2023-09-07T15:49:53;10.38;;;9.23;;
63492;SDS011;49638;47.526;10.028;2023-09-07T15:52:53;13.88;;;9.10;;
63492;SDS011;49638;47.526;10.028;2023-09-07T15:55:54;13.15;;;9.35;;
63492;SDS011;49638;47.526;10.028;2023-09-07T15:58:54;11.85;;;9.10;;
63492;SDS011;49638;47.526;10.028;2023-09-07T16:01:54;10.27;;;9.13;;
63492;SDS011;49638;47.526;10.028;2023-09-07T16:04:55;10.65;;;9.45;;
63492;SDS011;49638;47.526;10.028;2023-09-07T16:07:55;12.20;;;9.15;;
63492;SDS011;49638;47.526;10.028;2023-09-07T16:10:58;10.23;;;8.88;;
63492;SDS011;49638;47.526;10.028;2023-09-07T16:13:58;12.95;;;9.23;;
63492;SDS011;49638;47.526;10.028;2023-09-07T16:16:59;9.48;;;8.50;;
63492;SDS011;49638;47.526;10.028;2023-09-07T16:19:59;10.93;;;9.00;;
63492;SDS011;49638;47.526;10.028;2023-09-07T16:22:59;11.03;;;8.93;;
63492;SDS011;49638;47.526;10.028;2023-09-07T16:26:00;13.90;;;9.00;;
63492;SDS011;49638;47.526;10.028;2023-09-07T16:29:00;12.32;;;8.65;;
63492;SDS011;49638;47.526;10.028;2023-09-07T16:32:00;10.77;;;8.93;;
63492;SDS011;49638;47.526;10.028;2023-09-07T16:35:01;9.75;;;8.75;;
63492;SDS011;49638;47.526;10.028;2023-09-07T16:38:01;12.48;;;8.45;;
63492;SDS011;49638;47.526;10.028;2023-09-07T16:41:04;11.57;;;8.40;;
63492;SDS011;49638;47.526;10.028;2023-09-07T16:47:05;10.10;;;7.93;;
63492;SDS011;49638;47.526;10.028;2023-09-07T16:50:06;9.43;;;8.45;;
63492;SDS011;49638;47.526;10.028;2023-09-07T16:53:07;11.35;;;8.02;;
63492;SDS011;49638;47.526;10.028;2023-09-07T16:56:07;9.48;;;8.38;;
63492;SDS011;49638;47.526;10.028;2023-09-07T16:59:08;12.07;;;8.50;;
63492;SDS011;49638;47.526;10.028;2023-09-07T17:02:08;11.98;;;8.93;;
63492;SDS011;49638;47.526;10.028;2023-09-07T17:05:08;10.25;;;8.35;;
63492;SDS011;49638;47.526;10.028;2023-09-07T17:08:10;10.52;;;8.60;;
63492;SDS011;49638;47.526;10.028;2023-09-07T17:11:11;10.80;;;8.05;;
63492;SDS011;49638;47.526;10.028;2023-09-07T17:14:11;9.52;;;8.48;;
63492;SDS011;49638;47.526;10.028;2023-09-07T17:17:11;12.45;;;8.15;;
63492;SDS011;49638;47.526;10.028;2023-09-07T17:20:12;10.57;;;8.82;;
63492;SDS011;49638;47.526;10.028;2023-09-07T17:23:12;9.73;;;8.32;;
63492;SDS011;49638;47.526;10.028;2023-09-07T17:26:13;12.57;;;8.52;;
63492;SDS011;49638;47.526;10.028;2023-09-07T17:29:13;11.97;;;8.10;;
63492;SDS011;49638;47.526;10.028;2023-09-07T17:32:14;9.82;;;8.32;;
63492;SDS011;49638;47.526;10.028;2023-09-07T17:35:14;9.57;;;8.10;;
63492;SDS011;49638;47.526;10.028;2023-09-07T17:38:14;14.98;;;7.88;;
63492;SDS011;49638;47.526;10.028;2023-09-07T17:41:14;12.23;;;8.57;;
63492;SDS011;49638;47.526;10.028;2023-09-07T17:44:15;12.65;;;8.32;;
63492;SDS011;49638;47.526;10.028;2023-09-07T17:47:15;10.98;;;8.82;;
63492;SDS011;49638;47.526;10.028;2023-09-07T17:50:16;10.13;;;8.07;;
63492;SDS011;49638;47.526;10.028;2023-09-07T17:53:16;10.48;;;8.30;;
63492;SDS011;49638;47.526;10.028;2023-09-07T17:56:16;9.40;;;8.30;;